createdAt,value
2024-01-20T00:03:49.184Z,-3.63
2024-01-20T00:18:55.045Z,-3.58
2024-01-20T00:34:00.720Z,-3.48
2024-01-20T00:49:06.390Z,-3.20
2024-01-20T01:04:11.920Z,-3.15
2024-01-20T01:19:17.551Z,-3.07
2024-01-20T09:45:07.392Z,-0.07
2024-01-20T10:00:17.566Z,0.75
2024-01-20T10:15:30.989Z,1.64
2024-01-20T10:30:40.633Z,2.29
2024-01-20T10:45:55.998Z,2.07
2024-01-20T11:01:02.629Z,2.75
2024-01-20T11:16:09.072Z,2.37
2024-01-20T11:31:23.573Z,3.19
2024-01-20T11:46:29.475Z,2.66
2024-01-20T12:01:35.442Z,2.96
2024-01-20T12:16:41.363Z,3.03
2024-01-20T12:31:46.768Z,3.29
2024-01-20T12:46:52.566Z,2.99
2024-01-20T13:01:58.133Z,3.32
2024-01-20T13:17:04.151Z,2.94
2024-01-20T13:32:10.414Z,2.56
2024-01-20T13:47:16.217Z,2.41
2024-01-20T14:02:22.009Z,2.40
2024-01-20T14:17:28.692Z,2.21
2024-01-20T14:32:34.486Z,1.94
2024-01-20T14:47:40.436Z,1.75
2024-01-20T15:02:46.313Z,3.89
2024-01-20T15:17:52.200Z,8.96
2024-01-20T15:32:58.213Z,7.78
2024-01-20T15:48:04.102Z,0.64
2024-01-20T16:03:10.682Z,-0.21
2024-01-20T16:18:18.497Z,-0.73
2024-01-20T16:33:24.741Z,-1.15
2024-01-20T16:48:31.028Z,-1.56
2024-01-20T17:03:36.667Z,-2.04
2024-01-20T17:18:42.685Z,-2.51
2024-01-20T17:33:49.411Z,-2.82
2024-01-20T17:48:55.711Z,-3.00
2024-01-20T18:04:01.646Z,-3.16
2024-01-20T18:19:07.790Z,-3.23
2024-01-20T18:34:13.618Z,-3.20
2024-01-20T18:49:19.821Z,-3.52
2024-01-20T19:04:25.992Z,-3.63
2024-01-20T19:19:32.857Z,-3.94
2024-01-20T19:34:38.843Z,-3.99
2024-01-20T19:49:45.656Z,-4.34
2024-01-20T20:04:51.628Z,-4.64
2024-01-20T20:19:58.009Z,-5.16
2024-01-20T20:35:03.637Z,-5.28
2024-01-20T20:50:09.754Z,-5.56
2024-01-20T21:05:17.690Z,-5.68
2024-01-20T21:20:23.453Z,-5.83
2024-01-20T21:35:29.249Z,-5.52
2024-01-20T21:50:35.051Z,-4.43
2024-01-20T22:05:41.350Z,-3.97
2024-01-20T22:20:47.196Z,-3.58
2024-01-20T22:35:52.855Z,-4.53
2024-01-20T22:50:58.665Z,-4.86
2024-01-20T23:06:04.302Z,-4.09
2024-01-20T23:21:10.032Z,-3.48
2024-01-20T23:36:15.763Z,-3.25
2024-01-20T23:51:21.243Z,-3.05
